22:28
Airports
History
Links
Donate
Help keep this website running!
PayPal
Bitcoin
Information on this page is community maintained and may be outdated or inaccurate and is intended for reference only or PC simulator navigating.
Always use approved charts for navigating.
5CT0
Eastford
Eastford (5CT0)
Eastford, Connecticut, United States (6242)
4
Lat/Lng:41° 54' 37.35" N / 72° 4' 5.27" W
41.910375 / -72.068131
Elevation:600'ft 183mMSL
ID / ICAO:5CT0
Runways:1
Longest:(13-31) 547.2m 1,795ft Gravel
Distance To
Airport ID:
Nearby VORs <50NM
Nearby NDBs
Nearby WeatherUpdated 06-28-17 21:52 GMT
Nearby weather at KIJD, Windham located 12.9 nautical miles from 5CT0
Altimeter: 30.05
Visibility: 10.0 statute miles
Wind: 4 knots (280°)
Temp: 26°c 79°f
Humidity: 34.2%

METAR: KIJD 282152Z AUTO 28004KT 10SM FEW080 26/09 A3005 RMK AO2 SLP176 T02560094

(Powered by phpweather)
Runway 13 / 31
Dimensions:547.2 x 12.2m 1795' x 40'ft
Surface:Gravel
Runway 13 [A]Runway 31 [B]
Heading:114°TH 294°TH
Lat:
Lng:
41° 54' 41.11"N
72° 4' 16.09"W
41° 54' 33.59"N
72° 3' 54.45"W
User Notes and Comments
Google Map
Nearby Airports
(U) Toutant 3.2 NM
C44 NNE 12°
(R) Westford Airstrip 6.5 NM
CT74 WNW 295°
(U) Danielson 10.6 NM
KLZD SE 126°
(U) Danielson 10.6 NM
5B3 SE 126°
(U) Windham 12.9 NM
KIJD (WX) SSW 206°
(R) Yankee Airstrip 13.1 NM
CT13 E 98°
(U) Southbridge Muni 13.3 NM
3B0 N
VFR Chart
Flight Planning at SkyVector.com